sensor_id;sensor_type;location;lat;lon;timestamp;pressure;altitude;pressure_sealevel;temperature;humidity
9460;BME280;4768;42.664;23.240;2023-05-25T00:01:06;-9781.34;;;12.99;100.00
9460;BME280;4768;42.664;23.240;2023-05-25T00:03:33;-9778.78;;;12.90;100.00
9460;BME280;4768;42.664;23.240;2023-05-25T00:06:00;-9779.06;;;12.91;100.00
9460;BME280;4768;42.664;23.240;2023-05-25T00:08:27;-9778.66;;;12.90;100.00
9460;BME280;4768;42.664;23.240;2023-05-25T00:10:56;-9781.19;;;12.99;100.00
9460;BME280;4768;42.664;23.240;2023-05-25T00:13:22;-9782.63;;;13.03;100.00
9460;BME280;4768;42.664;23.240;2023-05-25T00:15:49;-9780.78;;;12.97;100.00
9460;BME280;4768;42.664;23.240;2023-05-25T00:18:16;-9782.91;;;13.04;100.00
9460;BME280;4768;42.664;23.240;2023-05-25T00:20:43;-9782.06;;;13.02;100.00
9460;BME280;4768;42.664;23.240;2023-05-25T00:23:10;-9781.91;;;13.01;100.00
9460;BME280;4768;42.664;23.240;2023-05-25T00:25:37;-9780.91;;;12.98;100.00
9460;BME280;4768;42.664;23.240;2023-05-25T00:28:05;-9780.78;;;12.97;100.00
9460;BME280;4768;42.664;23.240;2023-05-25T00:30:32;-9780.78;;;12.97;100.00
9460;BME280;4768;42.664;23.240;2023-05-25T00:32:58;-9780.22;;;12.95;100.00
9460;BME280;4768;42.664;23.240;2023-05-25T00:35:26;-9777.94;;;12.87;100.00
9460;BME280;4768;42.664;23.240;2023-05-25T00:37:52;-9774.66;;;12.76;100.00
9460;BME280;4768;42.664;23.240;2023-05-25T00:40:19;-9771.81;;;12.66;100.00
9460;BME280;4768;42.664;23.240;2023-05-25T00:42:46;-9770.97;;;12.63;100.00
9460;BME280;4768;42.664;23.240;2023-05-25T00:45:15;-9770.13;;;12.60;100.00
9460;BME280;4768;42.664;23.240;2023-05-25T00:47:42;-9768.97;;;12.56;100.00
9460;BME280;4768;42.664;23.240;2023-05-25T00:50:13;-9766.13;;;12.46;100.00
9460;BME280;4768;42.664;23.240;2023-05-25T00:52:41;-9763.56;;;12.37;100.00
9460;BME280;4768;42.664;23.240;2023-05-25T00:55:10;-9761.00;;;12.28;100.00
9460;BME280;4768;42.664;23.240;2023-05-25T00:57:40;-9759.16;;;12.22;100.00
9460;BME280;4768;42.664;23.240;2023-05-25T01:00:11;-9757.31;;;12.15;100.00
9460;BME280;4768;42.664;23.240;2023-05-25T01:02:41;-9766.13;;;12.46;100.00
9460;BME280;4768;42.664;23.240;2023-05-25T01:05:09;-9765.00;;;12.42;100.00
9460;BME280;4768;42.664;23.240;2023-05-25T01:07:38;-9765.13;;;12.43;100.00
9460;BME280;4768;42.664;23.240;2023-05-25T01:10:09;-9765.41;;;12.44;100.00
9460;BME280;4768;42.664;23.240;2023-05-25T01:12:37;-9765.41;;;12.44;100.00
9460;BME280;4768;42.664;23.240;2023-05-25T01:15:07;-9763.16;;;12.36;100.00
9460;BME280;4768;42.664;23.240;2023-05-25T01:17:34;-9762.00;;;12.32;100.00
9460;BME280;4768;42.664;23.240;2023-05-25T01:20:05;-9768.25;;;12.53;100.00
9460;BME280;4768;42.664;23.240;2023-05-25T01:22:37;-9766.13;;;12.46;100.00
9460;BME280;4768;42.664;23.240;2023-05-25T01:25:08;-9766.41;;;12.47;100.00
9460;BME280;4768;42.664;23.240;2023-05-25T01:27:42;-9766.41;;;12.47;100.00
9460;BME280;4768;42.664;23.240;2023-05-25T01:30:13;-9767.97;;;12.53;100.00
9460;BME280;4768;42.664;23.240;2023-05-25T01:32:41;-9769.53;;;12.58;100.00
9460;BME280;4768;42.664;23.240;2023-05-25T01:35:09;-9767.97;;;12.53;100.00
9460;BME280;4768;42.664;23.240;2023-05-25T01:37:38;-9767.41;;;12.51;100.00
9460;BME280;4768;42.664;23.240;2023-05-25T01:40:11;-9768.25;;;12.53;100.00
9460;BME280;4768;42.664;23.240;2023-05-25T01:42:38;-9768.53;;;12.54;100.00
9460;BME280;4768;42.664;23.240;2023-05-25T01:45:07;-9766.97;;;12.49;100.00
9460;BME280;4768;42.664;23.240;2023-05-25T01:47:41;-9768.69;;;12.55;100.00
9460;BME280;4768;42.664;23.240;2023-05-25T01:50:19;-9768.25;;;12.53;100.00
9460;BME280;4768;42.664;23.240;2023-05-25T01:52:55;-9768.25;;;12.53;100.00
9460;BME280;4768;42.664;23.240;2023-05-25T01:55:24;-9764.44;;;12.40;100.00
9460;BME280;4768;42.664;23.240;2023-05-25T01:57:54;-9762.72;;;12.34;100.00
9460;BME280;4768;42.664;23.240;2023-05-25T02:00:23;-9763.44;;;12.37;100.00
9460;BME280;4768;42.664;23.240;2023-05-25T02:02:52;-9763.84;;;12.38;100.00
9460;BME280;4768;42.664;23.240;2023-05-25T02:05:20;-9764.44;;;12.40;100.00
9460;BME280;4768;42.664;23.240;2023-05-25T02:07:46;-9766.56;;;12.48;100.00
9460;BME280;4768;42.664;23.240;2023-05-25T02:10:15;-9773.81;;;12.73;100.00
9460;BME280;4768;42.664;23.240;2023-05-25T02:12:41;-9778.34;;;12.89;100.00
9460;BME280;4768;42.664;23.240;2023-05-25T02:15:09;-9776.94;;;12.84;100.00
9460;BME280;4768;42.664;23.240;2023-05-25T02:17:36;-9770.97;;;12.63;100.00
9460;BME280;4768;42.664;23.240;2023-05-25T02:20:03;-9766.84;;;12.49;100.00
9460;BME280;4768;42.664;23.240;2023-05-25T02:22:31;-9766.00;;;12.46;100.00
9460;BME280;4768;42.664;23.240;2023-05-25T02:24:58;-9770.25;;;12.60;100.00
9460;BME280;4768;42.664;23.240;2023-05-25T02:27:26;-9771.53;;;12.65;100.00
9460;BME280;4768;42.664;23.240;2023-05-25T02:29:53;-9768.69;;;12.55;100.00
9460;BME280;4768;42.664;23.240;2023-05-25T02:32:21;-9765.56;;;12.44;100.00
9460;BME280;4768;42.664;23.240;2023-05-25T02:34:47;-9763.00;;;12.35;100.00
9460;BME280;4768;42.664;23.240;2023-05-25T02:37:14;-9759.16;;;12.22;100.00
9460;BME280;4768;42.664;23.240;2023-05-25T02:39:41;-9761.00;;;12.28;100.00
9460;BME280;4768;42.664;23.240;2023-05-25T02:42:08;-9765.13;;;12.43;100.00
9460;BME280;4768;42.664;23.240;2023-05-25T02:44:36;-9765.56;;;12.44;100.00
9460;BME280;4768;42.664;23.240;2023-05-25T02:47:03;-9766.28;;;12.47;100.00
9460;BME280;4768;42.664;23.240;2023-05-25T02:49:31;-9769.25;;;12.57;100.00
9460;BME280;4768;42.664;23.240;2023-05-25T02:51:58;-9769.13;;;12.56;100.00
9460;BME280;4768;42.664;23.240;2023-05-25T02:54:25;-9766.84;;;12.49;100.00
9460;BME280;4768;42.664;23.240;2023-05-25T02:56:52;-9770.13;;;12.60;100.00
9460;BME280;4768;42.664;23.240;2023-05-25T02:59:19;-9769.41;;;12.57;100.00
9460;BME280;4768;42.664;23.240;2023-05-25T03:01:47;-9767.56;;;12.51;100.00
9460;BME280;4768;42.664;23.240;2023-05-25T03:04:14;-9767.13;;;12.50;100.00
9460;BME280;4768;42.664;23.240;2023-05-25T03:06:42;-9764.16;;;12.39;100.00
9460;BME280;4768;42.664;23.240;2023-05-25T03:09:09;-9758.59;;;12.20;100.00
9460;BME280;4768;42.664;23.240;2023-05-25T03:11:36;-9757.19;;;12.15;100.00
9460;BME280;4768;42.664;23.240;2023-05-25T03:14:03;-9755.75;;;12.10;100.00
9460;BME280;4768;42.664;23.240;2023-05-25T03:16:30;-9758.19;;;12.18;100.00
9460;BME280;4768;42.664;23.240;2023-05-25T03:19:01;-9758.75;;;12.20;100.00
9460;BME280;4768;42.664;23.240;2023-05-25T03:21:29;-9759.31;;;12.22;100.00
9460;BME280;4768;42.664;23.240;2023-05-25T03:23:56;-9760.31;;;12.26;100.00
9460;BME280;4768;42.664;23.240;2023-05-25T03:26:23;-9759.59;;;12.23;100.00
9460;BME280;4768;42.664;23.240;2023-05-25T03:28:50;-9759.16;;;12.22;100.00
9460;BME280;4768;42.664;23.240;2023-05-25T03:31:17;-9761.88;;;12.31;100.00
9460;BME280;4768;42.664;23.240;2023-05-25T03:33:44;-9762.59;;;12.34;100.00
9460;BME280;4768;42.664;23.240;2023-05-25T03:36:13;-9763.72;;;12.38;100.00
9460;BME280;4768;42.664;23.240;2023-05-25T03:38:42;-9767.97;;;12.53;100.00
9460;BME280;4768;42.664;23.240;2023-05-25T03:41:09;-9769.97;;;12.59;100.00
9460;BME280;4768;42.664;23.240;2023-05-25T03:43:35;-9769.53;;;12.58;100.00
9460;BME280;4768;42.664;23.240;2023-05-25T03:46:02;-9768.25;;;12.53;100.00
9460;BME280;4768;42.664;23.240;2023-05-25T03:48:29;-9769.13;;;12.56;100.00
9460;BME280;4768;42.664;23.240;2023-05-25T03:50:56;-9770.69;;;12.62;100.00
9460;BME280;4768;42.664;23.240;2023-05-25T03:53:24;-9770.13;;;12.60;100.00
9460;BME280;4768;42.664;23.240;2023-05-25T03:55:50;-9775.22;;;12.78;100.00
9460;BME280;4768;42.664;23.240;2023-05-25T03:58:17;-9780.34;;;12.96;100.00
9460;BME280;4768;42.664;23.240;2023-05-25T04:00:44;-9787.47;;;13.20;100.00
9460;BME280;4768;42.664;23.240;2023-05-25T04:03:13;-9794.00;;;13.43;100.00
9460;BME280;4768;42.664;23.240;2023-05-25T04:05:40;-9796.69;;;13.52;100.00
9460;BME280;4768;42.664;23.240;2023-05-25T04:08:07;-9798.13;;;13.57;100.00
9460;BME280;4768;42.664;23.240;2023-05-25T04:10:35;-9801.69;;;13.70;100.00
9460;BME280;4768;42.664;23.240;2023-05-25T04:13:02;-9798.69;;;13.59;100.00
9460;BME280;4768;42.664;23.240;2023-05-25T04:15:29;-9797.97;;;13.57;100.00
9460;BME280;4768;42.664;23.240;2023-05-25T04:17:58;-9800.25;;;13.65;100.00
9460;BME280;4768;42.664;23.240;2023-05-25T04:20:27;-9803.53;;;13.76;100.00
9460;BME280;4768;42.664;23.240;2023-05-25T04:22:54;-9806.78;;;13.88;100.00
9460;BME280;4768;42.664;23.240;2023-05-25T04:25:21;-9809.38;;;13.97;100.00
9460;BME280;4768;42.664;23.240;2023-05-25T04:27:49;-9814.50;;;14.14;100.00
9460;BME280;4768;42.664;23.240;2023-05-25T04:30:17;-9819.63;;;14.32;100.00
9460;BME280;4768;42.664;23.240;2023-05-25T04:32:44;-9824.59;;;14.49;100.00
9460;BME280;4768;42.664;23.240;2023-05-25T04:35:11;-9828.44;;;14.63;100.00
9460;BME280;4768;42.664;23.240;2023-05-25T04:37:39;-9832.97;;;14.79;100.00
9460;BME280;4768;42.664;23.240;2023-05-25T04:40:07;-9836.13;;;14.90;100.00
9460;BME280;4768;42.664;23.240;2023-05-25T04:42:36;-9831.84;;;14.75;100.00
9460;BME280;4768;42.664;23.240;2023-05-25T04:45:06;-9827.16;;;14.58;100.00
9460;BME280;4768;42.664;23.240;2023-05-25T04:47:34;-9824.72;;;14.50;100.00
9460;BME280;4768;42.664;23.240;2023-05-25T04:50:02;-9827.00;;;14.58;100.00
9460;BME280;4768;42.664;23.240;2023-05-25T04:52:28;-9829.28;;;14.66;100.00
9460;BME280;4768;42.664;23.240;2023-05-25T04:54:55;-9836.97;;;14.93;100.00
9460;BME280;4768;42.664;23.240;2023-05-25T04:57:22;-9841.66;;;15.09;100.00
9460;BME280;4768;42.664;23.240;2023-05-25T04:59:48;-9853.06;;;15.48;100.00
9460;BME280;4768;42.664;23.240;2023-05-25T05:02:17;-9868.72;;;16.03;100.00
9460;BME280;4768;42.664;23.240;2023-05-25T05:04:43;-9879.41;;;16.40;100.00
9460;BME280;4768;42.664;23.240;2023-05-25T05:07:10;-9890.69;;;16.79;100.00
9460;BME280;4768;42.664;23.240;2023-05-25T05:09:37;-9887.97;;;16.70;100.00
9460;BME280;4768;42.664;23.240;2023-05-25T05:12:04;-9904.22;;;17.26;100.00
9460;BME280;4768;42.664;23.240;2023-05-25T05:14:31;-9909.22;;;17.43;100.00
9460;BME280;4768;42.664;23.240;2023-05-25T05:16:58;-9917.91;;;17.74;100.00
9460;BME280;4768;42.664;23.240;2023-05-25T05:19:27;-9918.78;;;17.77;100.00
9460;BME280;4768;42.664;23.240;2023-05-25T05:21:54;-9923.19;;;17.92;100.00
9460;BME280;4768;42.664;23.240;2023-05-25T05:24:21;-9919.03;;;17.78;100.00
9460;BME280;4768;42.664;23.240;2023-05-25T05:26:47;-9930.19;;;18.16;100.00
9460;BME280;4768;42.664;23.240;2023-05-25T05:29:15;-9935.88;;;18.36;100.00
9460;BME280;4768;42.664;23.240;2023-05-25T05:31:42;-9940.16;;;18.51;100.00
9460;BME280;4768;42.664;23.240;2023-05-25T05:34:09;-9940.88;;;18.53;100.00
9460;BME280;4768;42.664;23.240;2023-05-25T05:36:37;-9953.56;;;18.97;100.00
9460;BME280;4768;42.664;23.240;2023-05-25T05:39:04;-9946.88;;;18.74;100.00
9460;BME280;4768;42.664;23.240;2023-05-25T05:41:30;-9927.88;;;18.08;100.00
9460;BME280;4768;42.664;23.240;2023-05-25T05:43:57;-9925.19;;;17.99;100.00
9460;BME280;4768;42.664;23.240;2023-05-25T05:46:26;-9919.75;;;17.80;100.00
9460;BME280;4768;42.664;23.240;2023-05-25T05:48:54;-9917.47;;;17.72;100.00
9460;BME280;4768;42.664;23.240;2023-05-25T05:51:21;-9904.78;;;17.28;100.00
9460;BME280;4768;42.664;23.240;2023-05-25T05:53:49;-9927.03;;;18.05;100.00
9460;BME280;4768;42.664;23.240;2023-05-25T05:56:16;-9930.31;;;18.17;100.00
9460;BME280;4768;42.664;23.240;2023-05-25T05:58:43;-9935.47;;;18.35;100.00
9460;BME280;4768;42.664;23.240;2023-05-25T06:01:11;-9942.00;;;18.57;100.00
9460;BME280;4768;42.664;23.240;2023-05-25T06:03:38;-9942.59;;;18.59;100.00
9460;BME280;4768;42.664;23.240;2023-05-25T06:06:05;-9953.44;;;18.97;100.00
9460;BME280;4768;42.664;23.240;2023-05-25T06:08:32;-9949.72;;;18.84;100.00
9460;BME280;4768;42.664;23.240;2023-05-25T06:11:00;-9945.72;;;18.70;100.00
9460;BME280;4768;42.664;23.240;2023-05-25T06:13:27;-9941.88;;;18.57;100.00
9460;BME280;4768;42.664;23.240;2023-05-25T06:15:53;-9957.88;;;19.12;100.00
9460;BME280;4768;42.664;23.240;2023-05-25T06:18:20;-9952.88;;;18.95;100.00
9460;BME280;4768;42.664;23.240;2023-05-25T06:20:47;-9949.72;;;18.84;100.00
9460;BME280;4768;42.664;23.240;2023-05-25T06:23:14;-9936.16;;;18.37;100.00
9460;BME280;4768;42.664;23.240;2023-05-25T06:25:43;-9935.88;;;18.36;100.00
9460;BME280;4768;42.664;23.240;2023-05-25T06:28:11;-9927.59;;;18.07;100.00
9460;BME280;4768;42.664;23.240;2023-05-25T06:30:38;-9946.28;;;18.72;100.00
9460;BME280;4768;42.664;23.240;2023-05-25T06:33:04;-9934.88;;;18.33;100.00
9460;BME280;4768;42.664;23.240;2023-05-25T06:35:32;-9925.63;;;18.00;100.00
9460;BME280;4768;42.664;23.240;2023-05-25T06:37:59;-9927.59;;;18.07;100.00
9460;BME280;4768;42.664;23.240;2023-05-25T06:40:26;-9940.72;;;18.53;100.00
9460;BME280;4768;42.664;23.240;2023-05-25T06:42:52;-9962.72;;;19.29;100.00
9460;BME280;4768;42.664;23.240;2023-05-25T06:45:20;-9962.44;;;19.28;100.00
9460;BME280;4768;42.664;23.240;2023-05-25T06:47:47;-9960.56;;;19.22;100.00
9460;BME280;4768;42.664;23.240;2023-05-25T06:50:14;-9946.59;;;18.73;100.00
9460;BME280;4768;42.664;23.240;2023-05-25T06:52:41;-9942.88;;;18.60;100.00
9460;BME280;4768;42.664;23.240;2023-05-25T06:55:08;-9939.88;;;18.50;100.00
9460;BME280;4768;42.664;23.240;2023-05-25T06:57:34;-9963.72;;;19.33;100.00
9460;BME280;4768;42.664;23.240;2023-05-25T07:00:02;-9970.41;;;19.56;100.00
9460;BME280;4768;42.664;23.240;2023-05-25T07:02:30;-9949.88;;;18.85;100.00
9460;BME280;4768;42.664;23.240;2023-05-25T07:04:57;-9947.59;;;18.77;100.00
9460;BME280;4768;42.664;23.240;2023-05-25T07:07:24;-9940.59;;;18.52;100.00
9460;BME280;4768;42.664;23.240;2023-05-25T07:09:51;-9945.88;;;18.71;100.00
9460;BME280;4768;42.664;23.240;2023-05-25T07:12:17;-9944.72;;;18.67;100.00
9460;BME280;4768;42.664;23.240;2023-05-25T07:14:44;-9954.16;;;18.99;100.00
9460;BME280;4768;42.664;23.240;2023-05-25T07:17:12;-9956.59;;;19.08;100.00
9460;BME280;4768;42.664;23.240;2023-05-25T07:19:40;-9964.00;;;19.34;100.00
9460;BME280;4768;42.664;23.240;2023-05-25T07:22:07;-9975.84;;;19.75;100.00
9460;BME280;4768;42.664;23.240;2023-05-25T07:24:35;-9966.84;;;19.43;100.00
9460;BME280;4768;42.664;23.240;2023-05-25T07:27:02;-9951.56;;;18.90;100.00
9460;BME280;4768;42.664;23.240;2023-05-25T07:29:29;-9956.00;;;19.06;100.00
9460;BME280;4768;42.664;23.240;2023-05-25T07:31:55;-9952.56;;;18.94;100.00
9460;BME280;4768;42.664;23.240;2023-05-25T07:34:22;-9939.59;;;18.49;100.00
9460;BME280;4768;42.664;23.240;2023-05-25T07:36:50;-9951.72;;;18.91;100.00
9460;BME280;4768;42.664;23.240;2023-05-25T07:39:17;-9969.28;;;19.52;100.00
9460;BME280;4768;42.664;23.240;2023-05-25T07:41:43;-9953.44;;;18.97;100.00
9460;BME280;4768;42.664;23.240;2023-05-25T07:44:10;-9953.44;;;18.97;100.00
9460;BME280;4768;42.664;23.240;2023-05-25T07:46:37;-9938.75;;;18.46;100.00
9460;BME280;4768;42.664;23.240;2023-05-25T07:49:04;-9948.59;;;18.80;100.00
9460;BME280;4768;42.664;23.240;2023-05-25T07:51:36;-9965.16;;;19.38;100.00
9460;BME280;4768;42.664;23.240;2023-05-25T07:54:04;-9965.44;;;19.38;100.00
9460;BME280;4768;42.664;23.240;2023-05-25T07:56:31;-9972.41;;;19.63;100.00
9460;BME280;4768;42.664;23.240;2023-05-25T07:58:58;-9983.69;;;20.02;100.00
9460;BME280;4768;42.664;23.240;2023-05-25T08:01:25;-9979.72;;;19.88;100.00
9460;BME280;4768;42.664;23.240;2023-05-25T08:03:52;-9980.56;;;19.91;100.00
9460;BME280;4768;42.664;23.240;2023-05-25T08:06:18;-9945.72;;;18.70;100.00
9460;BME280;4768;42.664;23.240;2023-05-25T08:08:45;-9934.31;;;18.31;100.00
9460;BME280;4768;42.664;23.240;2023-05-25T08:11:14;-9939.31;;;18.48;100.00
9460;BME280;4768;42.664;23.240;2023-05-25T08:13:42;-9940.88;;;18.53;100.00
9460;BME280;4768;42.664;23.240;2023-05-25T08:16:08;-9938.31;;;18.44;100.00
9460;BME280;4768;42.664;23.240;2023-05-25T08:18:35;-9940.16;;;18.51;100.00
9460;BME280;4768;42.664;23.240;2023-05-25T08:21:02;-9935.03;;;18.33;100.00
9460;BME280;4768;42.664;23.240;2023-05-25T08:23:29;-9926.59;;;18.04;100.00
9460;BME280;4768;42.664;23.240;2023-05-25T08:25:57;-9915.50;;;17.65;100.00
9460;BME280;4768;42.664;23.240;2023-05-25T08:28:25;-9909.63;;;17.45;100.00
9460;BME280;4768;42.664;23.240;2023-05-25T08:30:52;-9891.69;;;16.83;100.00
9460;BME280;4768;42.664;23.240;2023-05-25T08:33:19;-9890.97;;;16.80;100.00
9460;BME280;4768;42.664;23.240;2023-05-25T08:35:46;-9891.81;;;16.83;100.00
9460;BME280;4768;42.664;23.240;2023-05-25T08:38:14;-9881.56;;;16.47;100.00
9460;BME280;4768;42.664;23.240;2023-05-25T08:40:41;-9878.84;;;16.38;100.00
9460;BME280;4768;42.664;23.240;2023-05-25T08:43:09;-9869.44;;;16.05;100.00
9460;BME280;4768;42.664;23.240;2023-05-25T08:45:37;-9869.16;;;16.04;100.00
9460;BME280;4768;42.664;23.240;2023-05-25T08:48:09;-9868.59;;;16.02;100.00
9460;BME280;4768;42.664;23.240;2023-05-25T08:50:37;-9871.56;;;16.13;100.00
9460;BME280;4768;42.664;23.240;2023-05-25T08:53:07;-9871.00;;;16.11;100.00
9460;BME280;4768;42.664;23.240;2023-05-25T08:55:37;-9872.72;;;16.17;100.00
9460;BME280;4768;42.664;23.240;2023-05-25T08:58:09;-9878.72;;;16.38;100.00
9460;BME280;4768;42.664;23.240;2023-05-25T09:00:45;-9874.13;;;16.22;100.00
9460;BME280;4768;42.664;23.240;2023-05-25T09:03:15;-9869.59;;;16.06;100.00
9460;BME280;4768;42.664;23.240;2023-05-25T09:05:43;-9872.16;;;16.15;100.00
9460;BME280;4768;42.664;23.240;2023-05-25T09:08:10;-9868.59;;;16.02;100.00
9460;BME280;4768;42.664;23.240;2023-05-25T09:10:37;-9867.31;;;15.98;100.00
9460;BME280;4768;42.664;23.240;2023-05-25T09:13:04;-9868.03;;;16.00;100.00
9460;BME280;4768;42.664;23.240;2023-05-25T09:15:32;-9868.31;;;16.01;100.00
9460;BME280;4768;42.664;23.240;2023-05-25T09:18:00;-9869.88;;;16.07;100.00
9460;BME280;4768;42.664;23.240;2023-05-25T09:20:27;-9870.59;;;16.09;100.00
9460;BME280;4768;42.664;23.240;2023-05-25T09:22:56;-9872.00;;;16.14;100.00
9460;BME280;4768;42.664;23.240;2023-05-25T09:25:24;-9870.00;;;16.07;100.00
9460;BME280;4768;42.664;23.240;2023-05-25T09:27:52;-9869.72;;;16.06;100.00
9460;BME280;4768;42.664;23.240;2023-05-25T09:30:19;-9870.59;;;16.09;100.00
9460;BME280;4768;42.664;23.240;2023-05-25T09:32:45;-9867.72;;;15.99;100.00
9460;BME280;4768;42.664;23.240;2023-05-25T09:35:14;-9863.88;;;15.86;100.00
9460;BME280;4768;42.664;23.240;2023-05-25T09:37:41;-9859.31;;;15.70;100.00
9460;BME280;4768;42.664;23.240;2023-05-25T09:40:09;-9857.19;;;15.63;100.00
9460;BME280;4768;42.664;23.240;2023-05-25T09:42:36;-9855.91;;;15.58;100.00
9460;BME280;4768;42.664;23.240;2023-05-25T09:45:04;-9853.63;;;15.50;100.00
9460;BME280;4768;42.664;23.240;2023-05-25T09:47:31;-9851.06;;;15.42;100.00
9460;BME280;4768;42.664;23.240;2023-05-25T09:49:58;-9857.75;;;15.65;100.00
9460;BME280;4768;42.664;23.240;2023-05-25T09:52:26;-9858.19;;;15.66;100.00
9460;BME280;4768;42.664;23.240;2023-05-25T09:54:53;-9863.19;;;15.84;100.00
9460;BME280;4768;42.664;23.240;2023-05-25T09:57:21;-9868.16;;;16.01;100.00
9460;BME280;4768;42.664;23.240;2023-05-25T09:59:47;-9874.84;;;16.24;100.00
9460;BME280;4768;42.664;23.240;2023-05-25T10:02:14;-9872.16;;;16.15;100.00
9460;BME280;4768;42.664;23.240;2023-05-25T10:04:41;-9881.84;;;16.48;100.00
9460;BME280;4768;42.664;23.240;2023-05-25T10:07:07;-9877.44;;;16.33;100.00
9460;BME280;4768;42.664;23.240;2023-05-25T10:09:38;-9881.56;;;16.47;100.00
9460;BME280;4768;42.664;23.240;2023-05-25T10:12:06;-9884.56;;;16.58;100.00
9460;BME280;4768;42.664;23.240;2023-05-25T10:14:35;-9882.56;;;16.51;100.00
9460;BME280;4768;42.664;23.240;2023-05-25T10:17:04;-9880.69;;;16.45;100.00
9460;BME280;4768;42.664;23.240;2023-05-25T10:19:35;-9880.56;;;16.44;100.00
9460;BME280;4768;42.664;23.240;2023-05-25T10:22:10;-9882.84;;;16.52;100.00
9460;BME280;4768;42.664;23.240;2023-05-25T10:24:51;-9889.41;;;16.75;100.00
9460;BME280;4768;42.664;23.240;2023-05-25T10:27:22;-9880.41;;;16.44;100.00
9460;BME280;4768;42.664;23.240;2023-05-25T10:29:50;-9885.84;;;16.62;100.00
9460;BME280;4768;42.664;23.240;2023-05-25T10:32:18;-9885.25;;;16.60;100.00
9460;BME280;4768;42.664;23.240;2023-05-25T10:34:45;-9888.97;;;16.73;100.00
9460;BME280;4768;42.664;23.240;2023-05-25T10:37:13;-9888.69;;;16.72;100.00
9460;BME280;4768;42.664;23.240;2023-05-25T10:39:40;-9892.97;;;16.87;100.00
9460;BME280;4768;42.664;23.240;2023-05-25T10:42:09;-9898.09;;;17.05;100.00
9460;BME280;4768;42.664;23.240;2023-05-25T10:44:37;-9906.50;;;17.34;100.00
9460;BME280;4768;42.664;23.240;2023-05-25T10:47:05;-9911.63;;;17.52;100.00
9460;BME280;4768;42.664;23.240;2023-05-25T10:49:34;-9917.34;;;17.72;100.00
9460;BME280;4768;42.664;23.240;2023-05-25T10:52:18;-9903.66;;;17.24;100.00
9460;BME280;4768;42.664;23.240;2023-05-25T10:54:45;-9908.06;;;17.40;100.00
9460;BME280;4768;42.664;23.240;2023-05-25T10:57:17;-9907.63;;;17.38;100.00
9460;BME280;4768;42.664;23.240;2023-05-25T10:59:48;-9900.22;;;17.12;100.00
9460;BME280;4768;42.664;23.240;2023-05-25T11:02:15;-9897.66;;;17.03;100.00
9460;BME280;4768;42.664;23.240;2023-05-25T11:04:42;-9899.22;;;17.09;100.00
9460;BME280;4768;42.664;23.240;2023-05-25T11:07:13;-9902.38;;;17.20;100.00
9460;BME280;4768;42.664;23.240;2023-05-25T11:09:42;-9916.63;;;17.69;100.00
9460;BME280;4768;42.664;23.240;2023-05-25T11:12:20;-9916.91;;;17.70;100.00
9460;BME280;4768;42.664;23.240;2023-05-25T11:15:10;-9928.88;;;18.12;100.00
9460;BME280;4768;42.664;23.240;2023-05-25T11:17:56;-9932.03;;;18.23;100.00
9460;BME280;4768;42.664;23.240;2023-05-25T11:20:26;-9937.47;;;18.42;100.00
9460;BME280;4768;42.664;23.240;2023-05-25T11:22:53;-9938.31;;;18.44;100.00
9460;BME280;4768;42.664;23.240;2023-05-25T11:25:36;-9945.44;;;18.69;100.00
9460;BME280;4768;42.664;23.240;2023-05-25T11:28:05;-9930.59;;;18.18;100.00
9460;BME280;4768;42.664;23.240;2023-05-25T11:30:33;-9924.03;;;17.95;100.00
9460;BME280;4768;42.664;23.240;2023-05-25T11:33:01;-9924.31;;;17.96;100.00
9460;BME280;4768;42.664;23.240;2023-05-25T11:35:29;-9922.03;;;17.88;100.00
9460;BME280;4768;42.664;23.240;2023-05-25T11:37:58;-9922.91;;;17.91;100.00
9460;BME280;4768;42.664;23.240;2023-05-25T11:40:28;-9926.19;;;18.02;100.00
9460;BME280;4768;42.664;23.240;2023-05-25T11:42:56;-9925.31;;;17.99;100.00
9460;BME280;4768;42.664;23.240;2023-05-25T11:45:28;-9923.19;;;17.92;100.00
9460;BME280;4768;42.664;23.240;2023-05-25T11:47:56;-9920.91;;;17.84;100.00
9460;BME280;4768;42.664;23.240;2023-05-25T11:50:23;-9922.75;;;17.91;100.00
9460;BME280;4768;42.664;23.240;2023-05-25T11:52:50;-9917.47;;;17.72;100.00
9460;BME280;4768;42.664;23.240;2023-05-25T11:55:16;-9922.75;;;17.91;100.00
9460;BME280;4768;42.664;23.240;2023-05-25T11:57:43;-9922.47;;;17.90;100.00
9460;BME280;4768;42.664;23.240;2023-05-25T12:00:11;-9925.63;;;18.00;100.00
9460;BME280;4768;42.664;23.240;2023-05-25T12:02:40;-9930.47;;;18.17;100.00
9460;BME280;4768;42.664;23.240;2023-05-25T12:05:07;-9936.16;;;18.37;100.00
9460;BME280;4768;42.664;23.240;2023-05-25T12:07:41;-9940.59;;;18.52;100.00
9460;BME280;4768;42.664;23.240;2023-05-25T12:10:10;-9948.28;;;18.79;100.00
9460;BME280;4768;42.664;23.240;2023-05-25T12:12:41;-9935.75;;;18.36;100.00
9460;BME280;4768;42.664;23.240;2023-05-25T12:15:09;-9940.31;;;18.51;100.00
9460;BME280;4768;42.664;23.240;2023-05-25T12:17:41;-9951.28;;;18.89;100.00
9460;BME280;4768;42.664;23.240;2023-05-25T12:20:10;-9972.28;;;19.62;100.00
9460;BME280;4768;42.664;23.240;2023-05-25T12:22:37;-9945.31;;;18.69;100.00
9460;BME280;4768;42.664;23.240;2023-05-25T12:25:06;-9952.28;;;18.93;100.00
9460;BME280;4768;42.664;23.240;2023-05-25T12:27:33;-9952.72;;;18.94;100.00
9460;BME280;4768;42.664;23.240;2023-05-25T12:30:00;-9954.56;;;19.01;100.00
9460;BME280;4768;42.664;23.240;2023-05-25T12:32:26;-9956.16;;;19.06;100.00
9460;BME280;4768;42.664;23.240;2023-05-25T12:35:03;-9961.16;;;19.24;100.00
9460;BME280;4768;42.664;23.240;2023-05-25T12:37:30;-9954.72;;;19.01;100.00
9460;BME280;4768;42.664;23.240;2023-05-25T12:39:57;-9947.88;;;18.78;100.00
9460;BME280;4768;42.664;23.240;2023-05-25T12:42:24;-9957.56;;;19.11;100.00
9460;BME280;4768;42.664;23.240;2023-05-25T12:44:54;-9981.72;;;19.95;100.00
9460;BME280;4768;42.664;23.240;2023-05-25T12:47:23;-9994.56;;;20.39;100.00
9460;BME280;4768;42.664;23.240;2023-05-25T12:50:08;-6879.03;;;20.78;100.00
9460;BME280;4768;42.664;23.240;2023-05-25T12:52:38;25224.47;;;20.51;100.00
9460;BME280;4768;42.664;23.240;2023-05-25T12:55:18;19269.16;;;20.46;100.00
9460;BME280;4768;42.664;23.240;2023-05-25T12:57:46;51290.34;;;20.82;100.00
9460;BME280;4768;42.664;23.240;2023-05-25T13:00:17;106954.16;;;21.25;100.00
9460;BME280;4768;42.664;23.240;2023-05-25T13:02:44;172442.59;;;20.56;100.00
9460;BME280;4768;42.664;23.240;2023-05-25T13:05:19;172354.09;;;20.24;100.00